Time;durP1;ratioP1;P1;durP2;ratioP2;P2;SDS_P1;SDS_P2;PMS_P1;PMS_P2;Temp;Humidity;BMP_temperature;BMP_pressure;BME280_temperature;BME280_humidity;BME280_pressure;Samples;Min_cycle;Max_cycle;Signal;HPM_P1;HPM_P2
2022/12/26 00:01:45;;;;;;;4.50;3.77;;;10.20;99.30;;;;;;483030;245;27660;-80
2022/12/26 00:03:47;;;;;;;4.90;3.77;;;10.10;99.50;;;;;;483035;245;27797;-80
2022/12/26 00:05:48;;;;;;;4.70;4.00;;;10.10;99.30;;;;;;483063;245;28128;-80
2022/12/26 00:07:49;;;;;;;4.43;4.03;;;10.20;99.30;;;;;;483062;245;27755;-80
2022/12/26 00:09:50;;;;;;;3.90;3.40;;;10.10;99.30;;;;;;483082;245;28018;-80
2022/12/26 00:11:52;;;;;;;5.67;3.90;;;10.20;99.10;;;;;;483094;245;28067;-80
2022/12/26 00:13:53;;;;;;;6.60;4.10;;;10.20;99.10;;;;;;483085;245;28529;-79
2022/12/26 00:15:54;;;;;;;4.40;3.53;;;10.20;99.20;;;;;;483107;244;28368;-80
2022/12/26 00:17:55;;;;;;;4.27;3.43;;;10.20;99.10;;;;;;483099;245;28500;-80
2022/12/26 00:19:57;;;;;;;5.63;3.70;;;10.20;99.10;;;;;;483122;246;28618;-79
2022/12/26 00:21:58;;;;;;;3.93;3.53;;;10.10;99.10;;;;;;483133;245;28093;-80
2022/12/26 00:23:59;;;;;;;5.47;3.33;;;10.10;99.20;;;;;;483149;245;27992;-79
2022/12/26 00:26:00;;;;;;;4.37;3.33;;;10.10;99.30;;;;;;483126;245;27709;-80
2022/12/26 00:28:02;;;;;;;4.00;3.60;;;10.10;99.10;;;;;;483084;245;28009;-80
2022/12/26 00:30:03;;;;;;;3.50;3.20;;;10.10;99.10;;;;;;483123;245;28333;-80
2022/12/26 00:32:04;;;;;;;4.10;3.17;;;10.10;99.10;;;;;;483142;245;27993;-80
2022/12/26 00:34:05;;;;;;;4.10;3.40;;;10.10;99.30;;;;;;483093;245;27997;-80
2022/12/26 00:36:07;;;;;;;5.57;3.30;;;10.20;99.30;;;;;;483074;245;28004;-79
2022/12/26 00:38:08;;;;;;;6.77;3.37;;;10.20;99.00;;;;;;483062;245;27922;-80
2022/12/26 00:40:09;;;;;;;3.67;3.10;;;10.20;99.00;;;;;;483123;245;28605;-79
2022/12/26 00:42:10;;;;;;;4.83;3.40;;;10.20;99.10;;;;;;483113;245;28544;-80
2022/12/26 00:44:12;;;;;;;4.23;3.67;;;10.20;98.90;;;;;;483089;245;28638;-79
2022/12/26 00:46:13;;;;;;;5.50;3.63;;;10.20;98.90;;;;;;483102;245;27977;-80
2022/12/26 00:48:14;;;;;;;4.33;3.70;;;10.20;98.90;;;;;;483065;245;27995;-80
2022/12/26 00:50:15;;;;;;;4.93;3.33;;;10.20;98.70;;;;;;483092;245;27997;-79
2022/12/26 00:52:17;;;;;;;6.10;3.40;;;10.20;98.60;;;;;;483124;245;28024;-79
2022/12/26 00:54:18;;;;;;;7.03;3.87;;;10.20;98.60;;;;;;483109;245;28089;-80
2022/12/26 00:56:19;;;;;;;3.47;3.17;;;10.30;98.50;;;;;;483070;245;27834;-80
2022/12/26 00:58:20;;;;;;;5.93;3.50;;;10.30;98.40;;;;;;483052;245;28447;-80
2022/12/26 01:00:22;;;;;;;5.30;3.40;;;10.30;98.40;;;;;;483074;245;27792;-80
2022/12/26 01:02:38;;;;;;;5.90;3.40;;;10.30;98.40;;;;;;483091;245;28031;-79
2022/12/26 01:04:39;;;;;;;4.27;3.43;;;10.30;98.40;;;;;;483012;245;27968;-80
2022/12/26 01:06:41;;;;;;;5.33;3.70;;;10.30;98.30;;;;;;483081;245;28136;-80
2022/12/26 01:08:42;;;;;;;6.53;3.53;;;10.30;98.10;;;;;;483117;245;27780;-80
2022/12/26 01:10:43;;;;;;;6.30;4.20;;;10.40;98.10;;;;;;483084;245;27993;-79
2022/12/26 01:12:45;;;;;;;5.70;3.40;;;10.40;97.90;;;;;;483096;245;28012;-81
2022/12/26 01:14:46;;;;;;;6.13;3.60;;;10.40;97.90;;;;;;483094;245;28112;-80
2022/12/26 01:16:47;;;;;;;4.50;3.30;;;10.40;97.90;;;;;;483115;245;28113;-79
2022/12/26 01:18:48;;;;;;;4.57;4.00;;;10.50;97.80;;;;;;483090;244;28522;-81
2022/12/26 01:20:50;;;;;;;4.90;3.33;;;10.50;97.70;;;;;;483115;245;28432;-79
2022/12/26 01:22:51;;;;;;;4.30;3.40;;;10.50;97.70;;;;;;483088;245;28614;-80
2022/12/26 01:24:52;;;;;;;6.70;3.60;;;10.50;97.60;;;;;;483085;245;28451;-79
2022/12/26 01:26:53;;;;;;;6.87;4.20;;;10.50;97.60;;;;;;483106;245;27901;-79
2022/12/26 01:28:55;;;;;;;6.30;3.83;;;10.50;97.50;;;;;;483120;245;28032;-79
2022/12/26 01:30:56;;;;;;;4.87;3.23;;;10.50;97.20;;;;;;483090;245;28129;-80
2022/12/26 01:32:57;;;;;;;7.50;3.00;;;10.60;97.10;;;;;;483062;245;28135;-80
2022/12/26 01:34:58;;;;;;;4.60;3.30;;;10.60;97.10;;;;;;483048;244;28076;-80
2022/12/26 01:37:00;;;;;;;4.10;3.30;;;10.60;97.10;;;;;;483101;245;28081;-80
2022/12/26 01:39:01;;;;;;;3.30;3.00;;;10.60;97.20;;;;;;483098;245;28101;-80
2022/12/26 01:41:20;;;;;;;4.37;3.43;;;10.60;97.10;;;;;;483096;245;27854;-80
2022/12/26 01:43:19;;;;;;;4.53;3.33;;;10.70;96.90;;;;;;482740;245;29357;-77
2022/12/26 01:45:20;;;;;;;7.03;3.93;;;10.60;96.90;;;;;;483093;245;28554;-80
2022/12/26 01:47:21;;;;;;;6.90;3.80;;;10.60;97.10;;;;;;483109;245;28594;-80
2022/12/26 01:49:22;;;;;;;4.60;2.90;;;10.70;97.00;;;;;;483126;245;28170;-80
2022/12/26 01:51:24;;;;;;;3.60;3.07;;;10.70;96.90;;;;;;483104;245;28019;-80
2022/12/26 01:53:25;;;;;;;3.57;3.00;;;10.70;96.80;;;;;;483103;245;27799;-79
2022/12/26 01:55:26;;;;;;;5.40;3.33;;;10.70;96.90;;;;;;483140;245;27834;-80
2022/12/26 01:57:27;;;;;;;3.30;3.00;;;10.70;96.70;;;;;;483108;245;28048;-80
2022/12/26 01:59:29;;;;;;;4.30;3.27;;;10.80;96.90;;;;;;483106;245;27865;-80
2022/12/26 02:01:30;;;;;;;5.77;3.33;;;10.70;96.80;;;;;;483005;245;27787;-80
2022/12/26 02:05:51;;;;;;;7.20;3.40;;;10.70;97.10;;;;;;482917;246;28656;-76
2022/12/26 02:07:52;;;;;;;6.13;3.63;;;10.70;96.80;;;;;;482891;245;28598;-80
2022/12/26 02:09:53;;;;;;;8.33;3.33;;;10.80;96.90;;;;;;482890;245;28043;-80
2022/12/26 02:11:54;;;;;;;4.93;3.50;;;10.70;96.80;;;;;;483156;245;27986;-79
2022/12/26 02:13:56;;;;;;;4.07;3.27;;;10.80;96.70;;;;;;483148;245;28080;-80
2022/12/26 02:15:57;;;;;;;3.27;2.97;;;10.80;96.60;;;;;;483136;245;27960;-79
2022/12/26 02:17:58;;;;;;;3.30;3.00;;;10.80;96.60;;;;;;483099;245;28061;-79
2022/12/26 02:20:00;;;;;;;5.97;3.30;;;10.80;96.90;;;;;;483114;245;28255;-80
2022/12/26 02:22:01;;;;;;;3.67;3.30;;;10.70;97.00;;;;;;483097;245;27845;-80
2022/12/26 02:24:02;;;;;;;5.73;3.30;;;10.70;96.80;;;;;;483113;245;28196;-79
2022/12/26 02:26:03;;;;;;;4.70;2.90;;;10.80;96.60;;;;;;483098;245;28041;-80
2022/12/26 02:28:04;;;;;;;3.97;3.20;;;10.80;96.40;;;;;;483088;245;28709;-80
2022/12/26 02:30:06;;;;;;;4.90;3.07;;;10.80;96.60;;;;;;483062;245;29524;-80
2022/12/26 02:32:07;;;;;;;6.00;3.10;;;10.70;96.80;;;;;;483135;245;28534;-80
2022/12/26 02:34:08;;;;;;;5.80;3.60;;;10.70;97.00;;;;;;483127;245;28448;-80
2022/12/26 02:36:09;;;;;;;7.20;3.13;;;10.70;96.90;;;;;;483076;245;28042;-80
2022/12/26 02:38:11;;;;;;;5.90;3.13;;;10.70;96.90;;;;;;482999;246;28124;-80
2022/12/26 02:40:12;;;;;;;4.80;3.50;;;10.70;96.80;;;;;;483057;245;28051;-79
2022/12/26 02:42:13;;;;;;;6.93;3.30;;;10.70;96.80;;;;;;483104;245;28091;-80
2022/12/26 02:48:54;;;;;;;5.47;3.70;;;10.70;96.80;;;;;;483066;246;28049;-79
2022/12/26 03:14:10;;;;;;;7.03;3.60;;;10.60;97.70;;;;;;483036;246;28217;-77
2022/12/26 03:18:31;;;;;;;3.73;3.10;;;10.50;97.80;;;;;;483052;246;28001;-78
2022/12/26 03:20:32;;;;;;;4.03;2.90;;;10.50;97.90;;;;;;483076;245;28029;-78
2022/12/26 03:22:34;;;;;;;9.73;3.37;;;10.50;98.00;;;;;;483071;245;27871;-80
2022/12/26 03:26:38;;;;;;;3.63;3.13;;;10.50;97.90;;;;;;483068;245;28111;-80
2022/12/26 03:26:39;;;;;;;5.70;3.00;;;10.50;98.00;;;;;;481535;246;28013;-80
2022/12/26 03:28:40;;;;;;;3.53;3.20;;;10.50;98.00;;;;;;483046;245;28265;-79
2022/12/26 03:30:50;;;;;;;4.17;2.87;;;10.50;98.10;;;;;;483050;245;27763;-81
2022/12/26 03:32:52;;;;;;;4.87;3.27;;;10.50;98.10;;;;;;483074;245;28633;-81
2022/12/26 03:34:53;;;;;;;4.43;3.00;;;10.50;98.10;;;;;;483014;246;28300;-80
2022/12/26 03:36:54;;;;;;;3.47;2.93;;;10.50;98.10;;;;;;482892;245;28022;-79
2022/12/26 03:38:55;;;;;;;4.73;2.77;;;10.50;98.20;;;;;;483014;245;27757;-79
2022/12/26 04:20:26;;;;;;;4.10;3.07;;;10.30;99.40;;;;;;483094;246;28161;-79
2022/12/26 04:45:42;;;;;;;3.80;2.80;;;10.60;98.70;;;;;;483057;246;28418;-77
2022/12/26 04:50:10;;;;;;;8.30;4.13;;;10.60;98.80;;;;;;483078;245;28152;-80
2022/12/26 04:52:05;;;;;;;3.27;2.97;;;10.70;98.50;;;;;;483035;246;27973;-80
2022/12/26 04:54:06;;;;;;;9.90;3.90;;;10.70;98.50;;;;;;483043;244;28100;-79
2022/12/26 04:56:07;;;;;;;5.60;3.40;;;10.60;98.70;;;;;;483084;245;27987;-80
2022/12/26 04:58:08;;;;;;;7.87;4.20;;;10.60;98.70;;;;;;483086;245;28138;-79
2022/12/26 05:00:10;;;;;;;5.67;3.50;;;10.60;98.50;;;;;;483104;245;28005;-81
2022/12/26 05:11:29;;;;;;;4.73;3.63;;;10.60;98.50;;;;;;483087;244;28104;-80
2022/12/26 05:13:30;;;;;;;5.20;3.60;;;10.60;98.60;;;;;;483053;245;27889;-80
2022/12/26 05:28:40;;;;;;;4.47;3.33;;;10.70;98.40;;;;;;483093;245;28085;-80
2022/12/26 05:29:11;;;;;;;4.70;3.60;;;10.70;99.60;;;;;;483050;246;28318;-80
2022/12/26 05:31:12;;;;;;;3.93;3.40;;;10.60;99.40;;;;;;483075;245;27976;-81
2022/12/26 05:35:33;;;;;;;4.90;3.57;;;10.70;99.40;;;;;;483058;246;28304;-79
2022/12/26 05:37:34;;;;;;;6.07;4.03;;;10.70;99.40;;;;;;483073;245;28499;-79
2022/12/26 05:39:36;;;;;;;4.67;3.57;;;10.70;99.40;;;;;;483072;245;27966;-80
2022/12/26 05:41:37;;;;;;;5.70;3.60;;;10.70;99.50;;;;;;483043;245;28223;-80
2022/12/26 05:43:38;;;;;;;5.67;3.50;;;10.60;99.70;;;;;;483035;245;28008;-80
2022/12/26 05:45:39;;;;;;;4.20;3.60;;;10.60;99.90;;;;;;483041;245;28064;-79
2022/12/26 05:47:41;;;;;;;6.03;3.70;;;10.60;99.90;;;;;;482913;245;28155;-79
2022/12/26 05:49:42;;;;;;;4.33;3.90;;;10.60;99.90;;;;;;482898;245;28196;-80
2022/12/26 05:51:43;;;;;;;8.80;4.43;;;10.60;99.90;;;;;;482854;245;28140;-80
2022/12/26 05:53:44;;;;;;;5.10;3.63;;;10.60;99.90;;;;;;483018;245;27875;-80
2022/12/26 05:55:46;;;;;;;4.70;4.20;;;10.50;99.90;;;;;;483117;245;28065;-79
2022/12/26 05:57:47;;;;;;;4.83;3.60;;;10.50;99.90;;;;;;483068;245;28238;-80
2022/12/26 05:59:48;;;;;;;3.60;3.30;;;10.50;99.90;;;;;;483114;245;28582;-80
2022/12/26 06:01:49;;;;;;;5.13;3.47;;;10.50;99.90;;;;;;483058;245;28591;-79
2022/12/26 06:03:51;;;;;;;3.83;3.50;;;10.40;99.90;;;;;;483023;245;28660;-80
2022/12/26 06:05:52;;;;;;;4.93;3.30;;;10.50;99.90;;;;;;483083;245;27964;-79
2022/12/26 06:07:53;;;;;;;7.57;4.03;;;10.40;99.90;;;;;;483078;245;28003;-79
2022/12/26 06:09:54;;;;;;;5.13;3.93;;;10.40;99.90;;;;;;483066;245;28122;-80
2022/12/26 06:11:56;;;;;;;5.77;4.10;;;10.40;99.90;;;;;;483053;245;27999;-79
2022/12/26 06:13:57;;;;;;;7.20;4.07;;;10.30;99.90;;;;;;483054;245;27976;-79
2022/12/26 06:15:58;;;;;;;8.10;4.50;;;10.30;99.90;;;;;;483066;245;28127;-80
2022/12/26 06:17:59;;;;;;;7.87;4.23;;;10.20;99.90;;;;;;483093;244;28119;-80
2022/12/26 06:20:01;;;;;;;4.37;3.97;;;10.20;99.90;;;;;;483067;245;27978;-79
2022/12/26 06:22:02;;;;;;;6.60;4.23;;;10.20;99.90;;;;;;483056;246;28362;-79
2022/12/26 06:24:03;;;;;;;4.50;3.83;;;10.20;99.90;;;;;;483073;245;29164;-80
2022/12/26 06:26:05;;;;;;;7.57;4.83;;;10.20;99.90;;;;;;483085;245;28678;-79
2022/12/26 06:28:06;;;;;;;7.17;4.30;;;10.20;99.90;;;;;;483055;245;28544;-80
2022/12/26 06:30:07;;;;;;;5.73;3.80;;;10.10;99.90;;;;;;483089;245;28052;-79
2022/12/26 06:32:08;;;;;;;7.13;4.20;;;10.10;99.90;;;;;;483077;245;28077;-80
2022/12/26 06:34:09;;;;;;;5.27;3.80;;;10.10;99.90;;;;;;483063;245;27860;-80
2022/12/26 06:36:11;;;;;;;6.40;4.30;;;10.10;99.90;;;;;;483137;245;27725;-79
2022/12/26 06:38:12;;;;;;;4.40;4.00;;;10.10;99.90;;;;;;483136;245;28023;-79
2022/12/26 06:40:13;;;;;;;7.80;4.67;;;10.10;99.90;;;;;;483099;245;28018;-80
2022/12/26 06:42:14;;;;;;;7.67;4.73;;;10.10;99.90;;;;;;483113;245;27957;-79
2022/12/26 06:44:16;;;;;;;9.43;4.87;;;10.00;99.90;;;;;;483108;245;28125;-80
2022/12/26 06:46:17;;;;;;;7.20;5.00;;;10.10;99.90;;;;;;483124;245;27952;-80
2022/12/26 06:48:18;;;;;;;7.20;4.80;;;10.00;99.90;;;;;;483097;245;28471;-80
2022/12/26 06:50:21;;;;;;;9.17;4.80;;;10.00;99.90;;;;;;483069;245;28607;-79
2022/12/26 06:52:21;;;;;;;8.17;5.07;;;10.00;99.90;;;;;;482967;246;28519;-79
2022/12/26 06:54:22;;;;;;;6.03;4.80;;;10.00;99.90;;;;;;483090;245;28018;-79
2022/12/26 06:56:23;;;;;;;7.27;4.90;;;10.00;99.90;;;;;;483064;245;27962;-79
2022/12/26 06:58:24;;;;;;;8.27;4.70;;;10.00;99.90;;;;;;483089;245;27874;-79
2022/12/26 07:00:26;;;;;;;5.30;4.27;;;10.00;99.90;;;;;;483062;245;27972;-80
2022/12/26 07:02:27;;;;;;;5.20;4.03;;;10.00;99.90;;;;;;483024;244;28016;-79
2022/12/26 07:04:28;;;;;;;6.10;3.90;;;10.00;99.90;;;;;;483042;245;28679;-80
2022/12/26 07:06:30;;;;;;;12.67;5.00;;;10.00;99.90;;;;;;483042;245;27970;-79
2022/12/26 07:08:31;;;;;;;6.00;5.17;;;10.00;99.90;;;;;;483049;245;28071;-79
2022/12/26 07:10:32;;;;;;;12.83;6.07;;;10.00;99.90;;;;;;483067;245;27935;-79
2022/12/26 07:12:33;;;;;;;4.43;4.00;;;9.90;99.90;;;;;;483070;245;28492;-80
2022/12/26 07:14:35;;;;;;;7.83;5.33;;;9.90;99.90;;;;;;483120;245;28460;-79
2022/12/26 07:16:36;;;;;;;10.63;5.17;;;9.90;99.90;;;;;;483081;245;27981;-79
2022/12/26 07:18:37;;;;;;;6.80;5.07;;;9.90;99.90;;;;;;482964;245;28041;-79
2022/12/26 07:20:38;;;;;;;6.57;4.87;;;9.90;99.90;;;;;;482883;245;28091;-80
2022/12/26 07:22:40;;;;;;;6.87;5.10;;;9.90;99.90;;;;;;482879;244;27852;-79
2022/12/26 07:24:41;;;;;;;9.73;5.43;;;9.90;99.90;;;;;;482968;245;28178;-80
2022/12/26 07:26:42;;;;;;;6.23;4.90;;;9.90;99.90;;;;;;483014;245;27879;-79
2022/12/26 07:28:43;;;;;;;7.40;4.90;;;9.90;99.90;;;;;;483043;245;27876;-80
2022/12/26 07:30:45;;;;;;;6.30;5.17;;;9.90;99.90;;;;;;483036;245;27742;-79
2022/12/26 07:32:46;;;;;;;6.83;4.80;;;9.90;99.90;;;;;;483091;245;28672;-79
2022/12/26 07:34:47;;;;;;;8.87;5.57;;;9.90;99.90;;;;;;483108;245;28391;-78
2022/12/26 07:36:48;;;;;;;6.13;4.80;;;9.90;99.90;;;;;;483103;245;28208;-79
2022/12/26 07:38:50;;;;;;;7.43;5.63;;;9.90;99.90;;;;;;483081;245;28197;-80
2022/12/26 07:40:51;;;;;;;6.30;4.20;;;9.80;99.90;;;;;;483066;245;28049;-79
2022/12/26 07:42:53;;;;;;;5.93;4.60;;;9.90;99.90;;;;;;483074;245;27516;-80
2022/12/26 07:44:53;;;;;;;5.90;4.50;;;9.90;99.90;;;;;;483042;244;28112;-79
2022/12/26 07:46:55;;;;;;;5.57;4.77;;;9.90;99.90;;;;;;483084;245;27980;-80
2022/12/26 07:48:56;;;;;;;6.20;4.70;;;9.90;99.90;;;;;;483082;245;28072;-80
2022/12/26 07:50:57;;;;;;;9.13;4.90;;;9.90;99.90;;;;;;483060;245;27943;-80
2022/12/26 07:52:59;;;;;;;5.90;4.73;;;9.90;99.90;;;;;;483058;245;28021;-80
2022/12/26 07:55:00;;;;;;;6.83;4.53;;;9.80;99.90;;;;;;483007;245;28037;-80
2022/12/26 07:57:01;;;;;;;4.80;3.90;;;9.80;99.90;;;;;;483081;245;27718;-79
2022/12/26 07:59:02;;;;;;;7.63;4.83;;;9.80;99.90;;;;;;483058;244;28020;-79
2022/12/26 08:01:03;;;;;;;5.97;3.53;;;9.80;99.90;;;;;;483071;245;28090;-80
2022/12/26 08:03:05;;;;;;;6.43;4.20;;;9.80;99.90;;;;;;483057;245;27850;-79
2022/12/26 08:05:06;;;;;;;6.10;4.67;;;9.90;99.90;;;;;;483100;245;28034;-79
2022/12/26 08:07:07;;;;;;;4.90;4.17;;;9.80;99.90;;;;;;483071;245;27949;-80
2022/12/26 08:09:08;;;;;;;5.43;4.30;;;9.80;99.90;;;;;;483039;245;28382;-79
2022/12/26 08:11:10;;;;;;;6.53;4.37;;;9.80;99.90;;;;;;483071;245;28530;-79
2022/12/26 08:13:11;;;;;;;6.00;4.37;;;9.80;99.90;;;;;;483047;245;28123;-79
2022/12/26 08:15:12;;;;;;;6.57;5.03;;;9.80;99.90;;;;;;483067;245;28536;-79
2022/12/26 08:17:13;;;;;;;4.53;4.13;;;9.80;99.90;;;;;;483108;245;28424;-79
2022/12/26 08:19:15;;;;;;;8.80;4.70;;;9.80;99.90;;;;;;483085;245;28012;-79
2022/12/26 08:21:18;;;;;;;5.67;5.00;;;9.80;99.90;;;;;;483071;245;27962;-79
2022/12/26 08:23:20;;;;;;;6.80;4.03;;;9.70;99.90;;;;;;483068;245;27966;-79
2022/12/26 08:25:21;;;;;;;4.50;3.90;;;9.70;99.90;;;;;;483047;245;27980;-80
2022/12/26 08:27:22;;;;;;;5.30;3.97;;;9.60;99.90;;;;;;483081;245;28015;-78
2022/12/26 08:29:23;;;;;;;4.83;4.00;;;9.60;99.90;;;;;;483136;245;27984;-79
2022/12/26 08:31:25;;;;;;;4.83;3.90;;;9.60;99.90;;;;;;483110;245;27685;-79
2022/12/26 08:33:26;;;;;;;4.13;3.70;;;9.60;99.90;;;;;;483076;245;28405;-80
2022/12/26 08:35:29;;;;;;;8.33;3.90;;;9.70;99.90;;;;;;483058;245;28515;-80
2022/12/26 08:37:28;;;;;;;5.77;3.30;;;9.70;99.90;;;;;;483031;244;29478;-79
2022/12/26 08:39:30;;;;;;;4.83;3.20;;;9.70;99.90;;;;;;483062;245;28414;-79
2022/12/26 08:41:31;;;;;;;5.20;3.77;;;9.70;99.90;;;;;;483098;245;28104;-79
2022/12/26 08:43:32;;;;;;;5.20;3.53;;;9.70;99.90;;;;;;483074;245;28093;-79
2022/12/26 08:45:33;;;;;;;5.73;3.40;;;9.70;99.90;;;;;;483052;245;28117;-79
2022/12/26 08:47:35;;;;;;;5.30;3.53;;;9.70;99.90;;;;;;483050;245;27980;-79
2022/12/26 08:49:36;;;;;;;4.23;3.63;;;9.60;99.90;;;;;;483104;245;27980;-80
2022/12/26 08:51:37;;;;;;;4.60;4.20;;;9.70;99.90;;;;;;483101;245;28116;-79
2022/12/26 08:53:39;;;;;;;5.93;3.80;;;9.70;99.90;;;;;;483084;245;27932;-79
2022/12/26 08:55:40;;;;;;;4.70;3.70;;;9.70;99.90;;;;;;483067;245;27855;-80
2022/12/26 08:57:41;;;;;;;6.30;4.17;;;9.70;99.90;;;;;;483107;245;28083;-79
2022/12/26 08:59:42;;;;;;;5.90;3.50;;;9.70;99.90;;;;;;483129;245;28066;-79
2022/12/26 09:01:43;;;;;;;3.93;3.33;;;9.70;99.90;;;;;;483102;245;27688;-82
2022/12/26 09:03:45;;;;;;;4.00;3.70;;;9.70;99.90;;;;;;483104;245;28170;-79
2022/12/26 09:05:46;;;;;;;4.30;3.50;;;9.70;99.90;;;;;;483090;245;27997;-79
2022/12/26 09:07:47;;;;;;;4.00;3.30;;;9.70;99.90;;;;;;483069;245;27880;-79
2022/12/26 09:09:48;;;;;;;3.53;2.77;;;9.70;99.90;;;;;;483127;245;27637;-79
2022/12/26 09:11:50;;;;;;;4.90;3.30;;;9.70;99.90;;;;;;483104;245;28390;-79
2022/12/26 09:13:51;;;;;;;6.00;3.23;;;9.80;99.90;;;;;;483088;245;28359;-79
2022/12/26 09:15:52;;;;;;;3.03;2.73;;;9.80;99.90;;;;;;483076;245;28552;-80
2022/12/26 09:17:53;;;;;;;7.77;3.07;;;9.80;99.90;;;;;;483073;245;28535;-80
2022/12/26 09:19:55;;;;;;;5.30;2.73;;;9.80;99.90;;;;;;483121;245;28579;-79
2022/12/26 09:24:16;;;;;;;3.23;2.93;;;9.80;99.90;;;;;;483028;246;27860;-79
2022/12/26 09:26:17;;;;;;;5.37;3.47;;;9.80;99.90;;;;;;483057;245;28000;-77
2022/12/26 09:28:18;;;;;;;4.05;2.90;;;9.80;99.90;;;;;;481258;245;36155;-79
2022/12/26 09:30:19;;;;;;;3.57;3.27;;;9.80;99.90;;;;;;482924;246;28892;-79
2022/12/26 09:32:21;;;;;;;4.27;3.37;;;9.80;99.90;;;;;;482909;245;27901;-79
2022/12/26 09:34:22;;;;;;;4.17;2.97;;;9.80;99.90;;;;;;482899;245;27960;-79
2022/12/26 09:36:23;;;;;;;3.30;3.00;;;9.80;99.90;;;;;;483100;245;27833;-79
2022/12/26 09:38:24;;;;;;;6.00;3.73;;;9.80;99.90;;;;;;483086;245;27978;-78
2022/12/26 09:40:26;;;;;;;4.73;3.80;;;9.80;99.90;;;;;;483109;245;27948;-79
2022/12/26 09:42:27;;;;;;;6.30;3.57;;;9.80;99.90;;;;;;483069;245;28269;-78
2022/12/26 09:44:28;;;;;;;5.03;3.53;;;9.80;99.90;;;;;;483107;245;28878;-79
2022/12/26 09:46:29;;;;;;;4.50;3.70;;;9.80;99.90;;;;;;483085;245;28387;-79
2022/12/26 09:48:31;;;;;;;4.07;3.67;;;9.80;99.90;;;;;;483081;245;28498;-79
2022/12/26 09:50:32;;;;;;;3.90;3.30;;;9.80;99.90;;;;;;483097;245;28377;-79
2022/12/26 09:52:33;;;;;;;12.50;3.70;;;9.80;99.90;;;;;;483048;245;28103;-79
2022/12/26 09:54:34;;;;;;;3.57;3.17;;;9.80;99.90;;;;;;483080;245;27853;-80
2022/12/26 09:56:36;;;;;;;5.23;3.40;;;9.80;99.90;;;;;;483084;245;28080;-79
2022/12/26 09:58:37;;;;;;;3.90;3.30;;;9.80;99.90;;;;;;483121;245;28021;-79
2022/12/26 10:00:38;;;;;;;6.47;3.67;;;9.80;99.90;;;;;;483090;246;27714;-79
2022/12/26 10:02:39;;;;;;;3.60;3.30;;;9.80;99.90;;;;;;483058;245;28084;-80
2022/12/26 10:04:41;;;;;;;5.60;3.13;;;9.80;99.90;;;;;;483112;245;28026;-79
2022/12/26 10:06:42;;;;;;;3.87;2.80;;;9.90;99.90;;;;;;483087;245;28067;-79
2022/12/26 10:08:43;;;;;;;3.27;2.97;;;9.90;99.90;;;;;;483102;245;28018;-79
2022/12/26 10:10:44;;;;;;;3.07;2.87;;;9.90;99.90;;;;;;483069;245;27969;-79
2022/12/26 10:12:46;;;;;;;4.83;3.53;;;9.90;99.90;;;;;;483125;245;28002;-79
2022/12/26 10:14:47;;;;;;;4.97;3.00;;;9.90;99.90;;;;;;483152;245;28014;-79
2022/12/26 10:16:48;;;;;;;6.43;2.83;;;9.90;99.90;;;;;;483107;245;27823;-79
2022/12/26 10:18:49;;;;;;;6.13;2.73;;;9.80;99.90;;;;;;483101;245;27973;-79
2022/12/26 10:20:51;;;;;;;4.47;3.03;;;9.90;99.90;;;;;;483114;245;28429;-78
2022/12/26 10:22:52;;;;;;;4.07;3.67;;;9.80;99.90;;;;;;483080;246;28467;-79
2022/12/26 10:24:53;;;;;;;3.30;3.00;;;9.80;99.90;;;;;;483160;245;28485;-79
2022/12/26 10:26:54;;;;;;;4.73;2.87;;;9.80;99.90;;;;;;483116;245;28385;-79
2022/12/26 10:28:57;;;;;;;8.70;3.00;;;9.80;99.90;;;;;;483033;245;28534;-79
2022/12/26 10:30:57;;;;;;;4.93;3.27;;;9.80;99.90;;;;;;482999;245;27839;-79
2022/12/26 10:32:59;;;;;;;6.77;3.47;;;9.90;99.90;;;;;;483073;245;27827;-79
2022/12/26 10:34:59;;;;;;;4.50;3.07;;;9.90;99.90;;;;;;483090;245;27864;-79
2022/12/26 10:37:01;;;;;;;4.07;3.00;;;9.90;99.90;;;;;;483135;245;28070;-79
2022/12/26 10:39:02;;;;;;;4.40;3.17;;;9.90;99.90;;;;;;483128;245;28045;-78
2022/12/26 10:41:04;;;;;;;5.43;3.40;;;10.00;99.90;;;;;;483051;245;27958;-79
2022/12/26 10:43:04;;;;;;;3.27;2.87;;;10.00;99.90;;;;;;483032;246;28022;-79
2022/12/26 10:45:06;;;;;;;4.13;3.17;;;10.00;99.90;;;;;;483115;245;28111;-79
2022/12/26 10:47:07;;;;;;;4.17;3.10;;;10.00;99.90;;;;;;483107;245;28071;-79
2022/12/26 10:49:08;;;;;;;3.80;3.40;;;10.00;99.90;;;;;;483108;245;28025;-80
2022/12/26 10:51:11;;;;;;;5.00;2.70;;;10.10;99.90;;;;;;483067;245;28095;-79
2022/12/26 10:53:11;;;;;;;4.30;3.20;;;10.10;99.90;;;;;;482936;246;28599;-79
2022/12/26 10:55:12;;;;;;;4.60;2.90;;;10.00;99.90;;;;;;483098;245;28595;-79
2022/12/26 10:57:13;;;;;;;3.87;2.90;;;10.00;99.90;;;;;;483079;245;28418;-79
2022/12/26 10:59:14;;;;;;;3.77;3.47;;;10.00;99.90;;;;;;482977;245;28002;-79
2022/12/26 11:01:16;;;;;;;3.70;3.23;;;10.10;99.90;;;;;;482923;245;28056;-79
2022/12/26 11:03:17;;;;;;;3.53;3.23;;;10.10;99.90;;;;;;482868;245;28134;-80
2022/12/26 11:05:18;;;;;;;3.83;3.23;;;10.10;99.90;;;;;;482985;245;27897;-80
2022/12/26 11:07:19;;;;;;;5.83;3.90;;;10.20;99.90;;;;;;483006;245;28125;-79
2022/12/26 11:09:21;;;;;;;4.67;3.10;;;10.10;99.90;;;;;;483052;245;28017;-79
2022/12/26 11:11:22;;;;;;;4.00;3.20;;;10.10;99.90;;;;;;483091;245;27944;-80
2022/12/26 11:13:23;;;;;;;4.00;3.27;;;10.20;99.90;;;;;;483126;245;27887;-79
2022/12/26 11:15:24;;;;;;;5.90;3.00;;;10.30;99.90;;;;;;483147;245;27743;-79
2022/12/26 11:17:26;;;;;;;3.93;3.63;;;10.40;99.90;;;;;;483127;245;28426;-79
2022/12/26 11:19:27;;;;;;;3.27;2.83;;;10.50;99.90;;;;;;483110;245;28613;-79
2022/12/26 11:21:28;;;;;;;4.20;3.40;;;10.40;99.90;;;;;;483088;245;28475;-79
2022/12/26 11:23:33;;;;;;;3.63;3.30;;;10.40;99.90;;;;;;483126;245;28020;-79
2022/12/26 11:25:33;;;;;;;6.57;3.40;;;10.30;99.90;;;;;;482801;245;27986;-79
2022/12/26 11:27:32;;;;;;;6.73;3.40;;;10.40;99.90;;;;;;482871;246;27819;-79
2022/12/26 11:29:35;;;;;;;2.67;2.43;;;10.40;99.90;;;;;;483072;245;27891;-79
2022/12/26 11:31:34;;;;;;;3.83;2.80;;;10.30;99.90;;;;;;482960;246;28020;-79
2022/12/26 11:33:36;;;;;;;3.47;3.17;;;10.40;99.90;;;;;;483077;245;28060;-79
2022/12/26 11:35:37;;;;;;;4.40;3.23;;;10.40;99.90;;;;;;483096;245;28084;-80
2022/12/26 11:37:38;;;;;;;4.10;3.70;;;10.40;99.90;;;;;;483088;245;28097;-79
2022/12/26 11:39:39;;;;;;;4.10;3.70;;;10.40;99.90;;;;;;483075;245;28129;-79
2022/12/26 11:41:42;;;;;;;4.17;3.17;;;10.40;99.90;;;;;;483081;245;28786;-79
2022/12/26 11:43:42;;;;;;;3.23;2.93;;;10.40;99.90;;;;;;482974;246;28524;-79
2022/12/26 11:45:43;;;;;;;4.23;3.50;;;10.50;99.90;;;;;;483076;245;28798;-79
2022/12/26 11:47:44;;;;;;;3.13;2.83;;;10.40;99.90;;;;;;483077;245;28602;-79
2022/12/26 11:49:46;;;;;;;4.60;2.90;;;10.40;99.90;;;;;;483048;245;28086;-79
2022/12/26 11:51:47;;;;;;;3.10;2.80;;;10.50;99.90;;;;;;483096;245;27962;-79
2022/12/26 11:53:48;;;;;;;3.57;2.80;;;10.40;99.90;;;;;;483075;245;28060;-78
2022/12/26 11:55:49;;;;;;;3.10;2.77;;;10.40;99.90;;;;;;483086;245;28156;-79
2022/12/26 11:57:51;;;;;;;3.93;2.90;;;10.30;99.90;;;;;;483076;245;27843;-79
2022/12/26 11:59:52;;;;;;;3.67;3.37;;;10.20;99.90;;;;;;483058;245;28009;-79
2022/12/26 12:01:53;;;;;;;4.27;3.20;;;10.20;99.90;;;;;;483078;245;28318;-79
2022/12/26 12:03:57;;;;;;;3.57;3.23;;;10.20;99.90;;;;;;483093;245;27954;-79
2022/12/26 12:05:56;;;;;;;4.80;3.47;;;10.20;99.90;;;;;;482956;244;27991;-80
2022/12/26 12:07:57;;;;;;;5.47;3.30;;;10.30;99.90;;;;;;483102;245;28307;-79
2022/12/26 12:09:58;;;;;;;6.10;2.70;;;10.30;99.90;;;;;;483064;245;28697;-79
2022/12/26 12:11:59;;;;;;;3.10;2.80;;;10.30;99.90;;;;;;483115;245;28437;-79
2022/12/26 12:14:01;;;;;;;9.20;3.17;;;10.30;99.90;;;;;;483164;245;27717;-79
2022/12/26 12:16:02;;;;;;;4.50;2.73;;;10.40;99.90;;;;;;483112;245;27771;-79
2022/12/26 12:18:03;;;;;;;4.60;3.00;;;10.50;99.90;;;;;;483056;244;27967;-79
2022/12/26 12:20:04;;;;;;;5.60;3.33;;;10.50;99.90;;;;;;483063;245;28008;-78
2022/12/26 12:22:06;;;;;;;3.67;3.27;;;10.50;99.90;;;;;;483110;245;28082;-79
2022/12/26 12:24:07;;;;;;;3.87;2.80;;;10.50;99.90;;;;;;483105;246;28281;-79
2022/12/26 12:26:08;;;;;;;2.80;2.60;;;10.50;99.90;;;;;;483104;245;28132;-79
2022/12/26 12:28:09;;;;;;;4.03;2.73;;;10.50;99.90;;;;;;483091;245;28167;-79
2022/12/26 12:30:11;;;;;;;8.70;3.47;;;10.40;99.90;;;;;;483059;245;28020;-79
2022/12/26 12:32:12;;;;;;;3.00;2.80;;;10.30;99.90;;;;;;483099;245;28654;-79
2022/12/26 12:34:13;;;;;;;5.40;2.80;;;10.30;99.90;;;;;;483101;246;28517;-79
2022/12/26 12:36:14;;;;;;;2.90;2.60;;;10.30;99.90;;;;;;483115;245;28219;-79
2022/12/26 12:38:16;;;;;;;4.00;3.00;;;10.30;99.90;;;;;;483088;245;28054;-79